sensor_id;sensor_type;location;lat;lon;timestamp;pressure;altitude;pressure_sealevel;temperature;humidity
24031;BME280;12240;51.142;22.486;2023-01-30T00:00:11;99270.72;;;-1.35;100.00
24031;BME280;12240;51.142;22.486;2023-01-30T00:02:40;99298.38;;;-1.15;100.00
24031;BME280;12240;51.142;22.486;2023-01-30T00:05:08;99298.28;;;-1.13;100.00
24031;BME280;12240;51.142;22.486;2023-01-30T00:07:36;99209.94;;;-1.54;100.00
24031;BME280;12240;51.142;22.486;2023-01-30T00:10:05;99291.38;;;-1.14;100.00
24031;BME280;12240;51.142;22.486;2023-01-30T00:12:33;99288.00;;;-1.17;100.00
24031;BME280;12240;51.142;22.486;2023-01-30T00:15:03;99273.44;;;-1.21;100.00
24031;BME280;12240;51.142;22.486;2023-01-30T00:17:31;99280.78;;;-1.11;100.00
24031;BME280;12240;51.142;22.486;2023-01-30T00:19:59;99277.34;;;-1.12;100.00
24031;BME280;12240;51.142;22.486;2023-01-30T00:22:28;99226.63;;;-1.41;100.00
24031;BME280;12240;51.142;22.486;2023-01-30T00:24:56;99242.25;;;-1.24;100.00
24031;BME280;12240;51.142;22.486;2023-01-30T00:27:25;99256.75;;;-1.18;100.00
24031;BME280;12240;51.142;22.486;2023-01-30T00:29:53;99253.97;;;-1.15;100.00
24031;BME280;12240;51.142;22.486;2023-01-30T00:32:31;99251.25;;;-1.13;100.00
24031;BME280;12240;51.142;22.486;2023-01-30T00:34:59;99240.81;;;-1.13;100.00
24031;BME280;12240;51.142;22.486;2023-01-30T00:37:28;99236.44;;;-1.13;100.00
24031;BME280;12240;51.142;22.486;2023-01-30T00:39:57;99176.69;;;-1.50;100.00
24031;BME280;12240;51.142;22.486;2023-01-30T00:42:27;99181.56;;;-1.44;100.00
24031;BME280;12240;51.142;22.486;2023-01-30T00:45:14;99220.16;;;-1.18;100.00
24031;BME280;12240;51.142;22.486;2023-01-30T00:48:02;99218.59;;;-1.21;100.00
24031;BME280;12240;51.142;22.486;2023-01-30T00:50:30;99206.78;;;-1.28;100.00
24031;BME280;12240;51.142;22.486;2023-01-30T00:53:14;99211.84;;;-1.25;100.00
24031;BME280;12240;51.142;22.486;2023-01-30T00:55:43;99165.22;;;-1.48;100.00
24031;BME280;12240;51.142;22.486;2023-01-30T00:58:12;99142.97;;;-1.55;100.00
24031;BME280;12240;51.142;22.486;2023-01-30T01:00:40;99192.47;;;-1.21;100.00
24031;BME280;12240;51.142;22.486;2023-01-30T01:03:09;99187.97;;;-1.19;100.00
24031;BME280;12240;51.142;22.486;2023-01-30T01:05:37;99177.13;;;-1.27;100.00
24031;BME280;12240;51.142;22.486;2023-01-30T01:08:05;99182.00;;;-1.21;100.00
24031;BME280;12240;51.142;22.486;2023-01-30T01:10:34;99180.13;;;-1.19;100.00
24031;BME280;12240;51.142;22.486;2023-01-30T01:13:03;99174.91;;;-1.19;100.00
24031;BME280;12240;51.142;22.486;2023-01-30T01:15:33;99183.69;;;-1.20;100.00
24031;BME280;12240;51.142;22.486;2023-01-30T01:18:02;99171.56;;;-1.21;100.00
24031;BME280;12240;51.142;22.486;2023-01-30T01:20:30;99122.72;;;-1.50;100.00
24031;BME280;12240;51.142;22.486;2023-01-30T01:22:59;99100.88;;;-1.64;100.00
24031;BME280;12240;51.142;22.486;2023-01-30T01:25:27;99174.75;;;-1.15;100.00
24031;BME280;12240;51.142;22.486;2023-01-30T01:27:55;99162.59;;;-1.17;100.00
24031;BME280;12240;51.142;22.486;2023-01-30T01:30:23;99147.13;;;-1.20;100.00
24031;BME280;12240;51.142;22.486;2023-01-30T01:32:51;99151.06;;;-1.12;100.00
24031;BME280;12240;51.142;22.486;2023-01-30T01:35:19;99149.13;;;-1.09;100.00
24031;BME280;12240;51.142;22.486;2023-01-30T01:37:52;99130.16;;;-1.12;100.00
24031;BME280;12240;51.142;22.486;2023-01-30T01:40:22;99146.63;;;-1.10;100.00
24031;BME280;12240;51.142;22.486;2023-01-30T01:43:20;99095.16;;;-1.40;100.00
24031;BME280;12240;51.142;22.486;2023-01-30T01:46:14;99073.69;;;-1.45;100.00
24031;BME280;12240;51.142;22.486;2023-01-30T01:48:51;99115.78;;;-1.20;100.00
24031;BME280;12240;51.142;22.486;2023-01-30T01:51:39;99122.16;;;-1.09;100.00
24031;BME280;12240;51.142;22.486;2023-01-30T01:54:16;99050.31;;;-1.48;100.00
24031;BME280;12240;51.142;22.486;2023-01-30T01:56:45;99063.63;;;-1.37;100.00
24031;BME280;12240;51.142;22.486;2023-01-30T01:59:50;99086.44;;;-1.25;100.00
24031;BME280;12240;51.142;22.486;2023-01-30T02:02:20;99032.41;;;-1.54;100.00
24031;BME280;12240;51.142;22.486;2023-01-30T02:04:54;99037.13;;;-1.45;100.00
24031;BME280;12240;51.142;22.486;2023-01-30T02:13:18;99079.59;;;-1.11;100.00
24031;BME280;12240;51.142;22.486;2023-01-30T02:15:48;99072.59;;;-1.11;100.00
24031;BME280;12240;51.142;22.486;2023-01-30T02:18:17;99048.69;;;-1.19;100.00
24031;BME280;12240;51.142;22.486;2023-01-30T02:21:53;99062.25;;;-1.12;100.00
24031;BME280;12240;51.142;22.486;2023-01-30T02:28:03;99018.00;;;-1.45;100.00
24031;BME280;12240;51.142;22.486;2023-01-30T02:38:35;99029.28;;;-1.15;100.00
24031;BME280;12240;51.142;22.486;2023-01-30T02:44:05;99026.59;;;-1.13;100.00
24031;BME280;12240;51.142;22.486;2023-01-30T02:47:01;99022.22;;;-1.13;100.00
24031;BME280;12240;51.142;22.486;2023-01-30T02:49:53;99004.97;;;-1.15;100.00
24031;BME280;12240;51.142;22.486;2023-01-30T02:52:25;99010.66;;;-1.09;100.00
24031;BME280;12240;51.142;22.486;2023-01-30T02:54:54;98956.75;;;-1.40;100.00
24031;BME280;12240;51.142;22.486;2023-01-30T02:57:24;98956.56;;;-1.37;100.00
24031;BME280;12240;51.142;22.486;2023-01-30T03:00:02;98983.50;;;-1.21;100.00
24031;BME280;12240;51.142;22.486;2023-01-30T03:03:08;98949.00;;;-1.41;100.00
24031;BME280;12240;51.142;22.486;2023-01-30T03:11:18;98967.25;;;-1.11;100.00
24031;BME280;12240;51.142;22.486;2023-01-30T03:13:56;98962.03;;;-1.11;100.00
24031;BME280;12240;51.142;22.486;2023-01-30T03:16:38;98950.09;;;-1.15;100.00
24031;BME280;12240;51.142;22.486;2023-01-30T03:19:12;98950.81;;;-1.13;100.00
24031;BME280;12240;51.142;22.486;2023-01-30T03:21:44;98945.78;;;-1.17;100.00
24031;BME280;12240;51.142;22.486;2023-01-30T03:24:13;98927.97;;;-1.24;100.00
24031;BME280;12240;51.142;22.486;2023-01-30T03:26:57;98901.25;;;-1.43;100.00
24031;BME280;12240;51.142;22.486;2023-01-30T03:29:26;98936.47;;;-1.21;100.00
24031;BME280;12240;51.142;22.486;2023-01-30T03:31:55;98894.06;;;-1.40;100.00
24031;BME280;12240;51.142;22.486;2023-01-30T03:34:23;98921.16;;;-1.27;100.00
24031;BME280;12240;51.142;22.486;2023-01-30T03:36:51;98879.78;;;-1.48;100.00
24031;BME280;12240;51.142;22.486;2023-01-30T03:39:19;98887.34;;;-1.44;100.00
24031;BME280;12240;51.142;22.486;2023-01-30T03:41:48;98886.78;;;-1.49;100.00
24031;BME280;12240;51.142;22.486;2023-01-30T03:44:17;98925.84;;;-1.17;100.00
24031;BME280;12240;51.142;22.486;2023-01-30T03:46:45;98901.91;;;-1.40;100.00
24031;BME280;12240;51.142;22.486;2023-01-30T03:49:13;98926.03;;;-1.21;100.00
24031;BME280;12240;51.142;22.486;2023-01-30T03:51:41;98925.34;;;-1.24;100.00
24031;BME280;12240;51.142;22.486;2023-01-30T03:54:09;98862.16;;;-1.59;100.00
24031;BME280;12240;51.142;22.486;2023-01-30T03:56:38;98873.81;;;-1.50;100.00
24031;BME280;12240;51.142;22.486;2023-01-30T03:59:07;98816.41;;;-1.80;100.00
24031;BME280;12240;51.142;22.486;2023-01-30T04:01:40;98886.34;;;-1.41;100.00
24031;BME280;12240;51.142;22.486;2023-01-30T04:04:10;98883.53;;;-1.38;100.00
24031;BME280;12240;51.142;22.486;2023-01-30T04:06:38;98897.16;;;-1.33;100.00
24031;BME280;12240;51.142;22.486;2023-01-30T04:09:05;98825.19;;;-1.67;100.00
24031;BME280;12240;51.142;22.486;2023-01-30T04:11:42;98884.75;;;-1.30;100.00
24031;BME280;12240;51.142;22.486;2023-01-30T04:14:10;98814.03;;;-1.69;100.00
24031;BME280;12240;51.142;22.486;2023-01-30T04:17:05;98824.41;;;-1.53;100.00
24031;BME280;12240;51.142;22.486;2023-01-30T04:19:56;98852.66;;;-1.32;100.00
24031;BME280;12240;51.142;22.486;2023-01-30T04:22:25;98860.31;;;-1.29;100.00
24031;BME280;12240;51.142;22.486;2023-01-30T04:24:53;98803.41;;;-1.66;100.00
24031;BME280;12240;51.142;22.486;2023-01-30T04:27:21;98862.00;;;-1.28;100.00
24031;BME280;12240;51.142;22.486;2023-01-30T04:30:10;98796.66;;;-1.70;100.00
24031;BME280;12240;51.142;22.486;2023-01-30T04:32:39;98698.19;;;-2.24;100.00
24031;BME280;12240;51.142;22.486;2023-01-30T04:35:09;98845.03;;;-1.35;100.00
24031;BME280;12240;51.142;22.486;2023-01-30T04:37:38;98637.28;;;-2.67;100.00
24031;BME280;12240;51.142;22.486;2023-01-30T04:40:08;98816.84;;;-1.44;100.00
24031;BME280;12240;51.142;22.486;2023-01-30T04:42:37;98828.03;;;-1.42;100.00
24031;BME280;12240;51.142;22.486;2023-01-30T04:45:28;98801.47;;;-1.48;100.00
24031;BME280;12240;51.142;22.486;2023-01-30T04:47:57;98816.28;;;-1.49;100.00
24031;BME280;12240;51.142;22.486;2023-01-30T04:50:25;98806.69;;;-1.48;100.00
24031;BME280;12240;51.142;22.486;2023-01-30T04:52:53;98797.25;;;-1.51;100.00
24031;BME280;12240;51.142;22.486;2023-01-30T04:55:21;98789.41;;;-1.51;100.00
24031;BME280;12240;51.142;22.486;2023-01-30T04:57:49;98740.53;;;-1.77;100.00
24031;BME280;12240;51.142;22.486;2023-01-30T05:00:17;98787.47;;;-1.47;100.00
24031;BME280;12240;51.142;22.486;2023-01-30T05:02:52;98787.38;;;-1.46;100.00
24031;BME280;12240;51.142;22.486;2023-01-30T05:05:23;98795.97;;;-1.44;100.00
24031;BME280;12240;51.142;22.486;2023-01-30T05:07:52;98780.47;;;-1.47;100.00
24031;BME280;12240;51.142;22.486;2023-01-30T05:10:21;98735.16;;;-1.74;100.00
24031;BME280;12240;51.142;22.486;2023-01-30T05:12:49;98707.94;;;-1.98;100.00
24031;BME280;12240;51.142;22.486;2023-01-30T05:15:17;98777.13;;;-1.49;100.00
24031;BME280;12240;51.142;22.486;2023-01-30T05:17:46;98788.50;;;-1.36;100.00
24031;BME280;12240;51.142;22.486;2023-01-30T05:20:14;98781.59;;;-1.37;100.00
24031;BME280;12240;51.142;22.486;2023-01-30T05:22:42;98786.81;;;-1.37;100.00
24031;BME280;12240;51.142;22.486;2023-01-30T05:25:10;98776.19;;;-1.34;100.00
24031;BME280;12240;51.142;22.486;2023-01-30T05:27:39;98724.53;;;-1.71;100.00
24031;BME280;12240;51.142;22.486;2023-01-30T05:30:08;98779.00;;;-1.37;100.00
24031;BME280;12240;51.142;22.486;2023-01-30T05:32:36;98747.56;;;-1.49;100.00
24031;BME280;12240;51.142;22.486;2023-01-30T05:35:05;98697.78;;;-1.74;100.00
24031;BME280;12240;51.142;22.486;2023-01-30T05:37:33;98739.53;;;-1.46;100.00
24031;BME280;12240;51.142;22.486;2023-01-30T05:40:01;98732.34;;;-1.43;100.00
24031;BME280;12240;51.142;22.486;2023-01-30T05:42:30;98673.44;;;-1.75;100.00
24031;BME280;12240;51.142;22.486;2023-01-30T05:44:58;98693.66;;;-1.64;100.00
24031;BME280;12240;51.142;22.486;2023-01-30T05:47:26;98724.91;;;-1.49;100.00
24031;BME280;12240;51.142;22.486;2023-01-30T05:49:54;98737.56;;;-1.43;100.00
24031;BME280;12240;51.142;22.486;2023-01-30T05:52:22;98716.97;;;-1.47;100.00
24031;BME280;12240;51.142;22.486;2023-01-30T05:54:50;98653.88;;;-1.82;100.00
24031;BME280;12240;51.142;22.486;2023-01-30T05:57:18;98729.38;;;-1.37;100.00
24031;BME280;12240;51.142;22.486;2023-01-30T05:59:47;98725.34;;;-1.42;100.00
24031;BME280;12240;51.142;22.486;2023-01-30T06:02:15;98709.69;;;-1.42;100.00
24031;BME280;12240;51.142;22.486;2023-01-30T06:04:43;98714.00;;;-1.41;100.00
24031;BME280;12240;51.142;22.486;2023-01-30T06:07:12;98649.22;;;-1.77;100.00
24031;BME280;12240;51.142;22.486;2023-01-30T06:09:40;98701.75;;;-1.41;100.00
24031;BME280;12240;51.142;22.486;2023-01-30T06:12:09;98711.75;;;-1.33;100.00
24031;BME280;12240;51.142;22.486;2023-01-30T06:14:37;98672.69;;;-1.49;100.00
24031;BME280;12240;51.142;22.486;2023-01-30T06:17:05;98631.13;;;-1.66;100.00
24031;BME280;12240;51.142;22.486;2023-01-30T06:19:34;98630.72;;;-1.60;100.00
24031;BME280;12240;51.142;22.486;2023-01-30T06:22:02;98511.34;;;-2.39;100.00
24031;BME280;12240;51.142;22.486;2023-01-30T06:24:30;98686.09;;;-1.27;100.00
24031;BME280;12240;51.142;22.486;2023-01-30T06:26:58;98680.22;;;-1.30;100.00
24031;BME280;12240;51.142;22.486;2023-01-30T06:29:27;98662.69;;;-1.28;100.00
24031;BME280;12240;51.142;22.486;2023-01-30T06:31:55;98599.81;;;-1.66;100.00
24031;BME280;12240;51.142;22.486;2023-01-30T06:34:23;98599.31;;;-1.58;100.00
24031;BME280;12240;51.142;22.486;2023-01-30T06:36:51;98619.22;;;-1.29;100.00
24031;BME280;12240;51.142;22.486;2023-01-30T06:39:19;98635.34;;;-1.23;100.00
24031;BME280;12240;51.142;22.486;2023-01-30T06:41:48;98629.81;;;-1.18;100.00
24031;BME280;12240;51.142;22.486;2023-01-30T06:44:16;98599.16;;;-1.29;100.00
24031;BME280;12240;51.142;22.486;2023-01-30T06:46:44;98607.34;;;-1.21;100.00
24031;BME280;12240;51.142;22.486;2023-01-30T06:49:13;98533.78;;;-1.54;100.00
24031;BME280;12240;51.142;22.486;2023-01-30T06:51:41;98605.06;;;-1.12;100.00
24031;BME280;12240;51.142;22.486;2023-01-30T06:54:09;98514.56;;;-1.53;100.00
24031;BME280;12240;51.142;22.486;2023-01-30T06:56:37;98583.97;;;-1.09;100.00
24031;BME280;12240;51.142;22.486;2023-01-30T06:59:05;98570.16;;;-1.11;100.00
24031;BME280;12240;51.142;22.486;2023-01-30T07:01:33;98560.78;;;-1.14;100.00
24031;BME280;12240;51.142;22.486;2023-01-30T07:04:02;98533.84;;;-1.29;100.00
24031;BME280;12240;51.142;22.486;2023-01-30T07:06:30;98534.66;;;-1.14;100.00
24031;BME280;12240;51.142;22.486;2023-01-30T07:08:58;98546.13;;;-1.17;100.00
24031;BME280;12240;51.142;22.486;2023-01-30T07:11:27;98544.25;;;-1.14;100.00
24031;BME280;12240;51.142;22.486;2023-01-30T07:13:56;98485.03;;;-1.53;100.00
24031;BME280;12240;51.142;22.486;2023-01-30T07:16:24;98489.19;;;-1.51;100.00
24031;BME280;12240;51.142;22.486;2023-01-30T07:18:57;98518.19;;;-1.29;100.00
24031;BME280;12240;51.142;22.486;2023-01-30T07:21:25;98500.31;;;-1.35;100.00
24031;BME280;12240;51.142;22.486;2023-01-30T07:23:54;98530.88;;;-1.23;100.00
24031;BME280;12240;51.142;22.486;2023-01-30T07:26:22;98507.34;;;-1.23;100.00
24031;BME280;12240;51.142;22.486;2023-01-30T07:28:52;98485.69;;;-1.37;100.00
24031;BME280;12240;51.142;22.486;2023-01-30T07:31:20;98510.16;;;-1.26;100.00
24031;BME280;12240;51.142;22.486;2023-01-30T07:33:48;98450.72;;;-1.61;100.00
24031;BME280;12240;51.142;22.486;2023-01-30T07:36:16;98487.47;;;-1.38;100.00
24031;BME280;12240;51.142;22.486;2023-01-30T07:38:47;98475.66;;;-1.43;100.00
24031;BME280;12240;51.142;22.486;2023-01-30T07:41:16;98484.25;;;-1.29;100.00
24031;BME280;12240;51.142;22.486;2023-01-30T07:43:44;98488.34;;;-1.25;100.00
24031;BME280;12240;51.142;22.486;2023-01-30T07:46:13;98490.84;;;-1.23;100.00
24031;BME280;12240;51.142;22.486;2023-01-30T07:48:44;98478.63;;;-1.23;100.00
24031;BME280;12240;51.142;22.486;2023-01-30T07:51:12;98490.97;;;-1.12;100.00
24031;BME280;12240;51.142;22.486;2023-01-30T07:53:40;98450.28;;;-1.41;100.00
24031;BME280;12240;51.142;22.486;2023-01-30T07:56:11;98409.59;;;-1.58;100.00
24031;BME280;12240;51.142;22.486;2023-01-30T07:58:41;98482.28;;;-1.25;100.00
24031;BME280;12240;51.142;22.486;2023-01-30T08:01:09;98490.09;;;-1.25;100.00
24031;BME280;12240;51.142;22.486;2023-01-30T08:03:37;98430.59;;;-1.59;100.00
24031;BME280;12240;51.142;22.486;2023-01-30T08:06:06;98421.25;;;-1.76;100.00
24031;BME280;12240;51.142;22.486;2023-01-30T08:08:34;98475.03;;;-1.34;100.00
24031;BME280;12240;51.142;22.486;2023-01-30T08:11:02;98406.53;;;-1.77;100.00
24031;BME280;12240;51.142;22.486;2023-01-30T08:13:33;98476.81;;;-1.35;100.00
24031;BME280;12240;51.142;22.486;2023-01-30T08:16:04;98413.56;;;-1.65;100.00
24031;BME280;12240;51.142;22.486;2023-01-30T08:18:34;98416.53;;;-1.57;100.00
24031;BME280;12240;51.142;22.486;2023-01-30T08:21:05;98417.34;;;-1.56;100.00
24031;BME280;12240;51.142;22.486;2023-01-30T08:23:34;98462.31;;;-1.13;100.00
24031;BME280;12240;51.142;22.486;2023-01-30T08:26:05;98453.78;;;-1.15;100.00
24031;BME280;12240;51.142;22.486;2023-01-30T08:28:33;98440.72;;;-1.15;100.00
24031;BME280;12240;51.142;22.486;2023-01-30T08:31:01;98271.53;;;-2.12;100.00
24031;BME280;12240;51.142;22.486;2023-01-30T08:33:29;98410.19;;;-1.28;100.00
24031;BME280;12240;51.142;22.486;2023-01-30T08:35:57;98415.31;;;-1.13;100.00
24031;BME280;12240;51.142;22.486;2023-01-30T08:38:27;98346.88;;;-1.44;100.00
24031;BME280;12240;51.142;22.486;2023-01-30T08:40:55;98380.75;;;-1.17;100.00
24031;BME280;12240;51.142;22.486;2023-01-30T08:43:25;98404.25;;;-1.04;100.00
24031;BME280;12240;51.142;22.486;2023-01-30T08:45:55;98382.81;;;-1.09;100.00
24031;BME280;12240;51.142;22.486;2023-01-30T08:48:24;98349.09;;;-1.38;100.00
24031;BME280;12240;51.142;22.486;2023-01-30T08:50:53;98390.88;;;-1.12;100.00
24031;BME280;12240;51.142;22.486;2023-01-30T08:53:22;98389.41;;;-1.17;100.00
24031;BME280;12240;51.142;22.486;2023-01-30T08:55:51;98348.22;;;-1.26;100.00
24031;BME280;12240;51.142;22.486;2023-01-30T08:58:21;98375.22;;;-1.00;100.00
24031;BME280;12240;51.142;22.486;2023-01-30T09:00:49;98369.22;;;-0.89;100.00
24031;BME280;12240;51.142;22.486;2023-01-30T09:03:18;98338.81;;;-0.90;100.00
24031;BME280;12240;51.142;22.486;2023-01-30T09:05:46;98333.59;;;-0.90;100.00
24031;BME280;12240;51.142;22.486;2023-01-30T09:08:15;98320.31;;;-0.87;100.00
24031;BME280;12240;51.142;22.486;2023-01-30T09:10:43;98276.34;;;-1.19;100.00
24031;BME280;12240;51.142;22.486;2023-01-30T09:13:11;98338.31;;;-0.95;100.00
24031;BME280;12240;51.142;22.486;2023-01-30T09:15:43;98317.53;;;-1.09;100.00
24031;BME280;12240;51.142;22.486;2023-01-30T09:18:12;98270.44;;;-1.46;100.00
24031;BME280;12240;51.142;22.486;2023-01-30T09:20:40;98301.22;;;-1.13;100.00
24031;BME280;12240;51.142;22.486;2023-01-30T09:23:08;98309.69;;;-1.09;100.00
24031;BME280;12240;51.142;22.486;2023-01-30T09:25:36;98297.69;;;-1.12;100.00
24031;BME280;12240;51.142;22.486;2023-01-30T09:28:04;98309.06;;;-1.00;100.00
24031;BME280;12240;51.142;22.486;2023-01-30T09:30:33;98255.78;;;-1.23;100.00
24031;BME280;12240;51.142;22.486;2023-01-30T09:33:02;98287.94;;;-0.97;100.00
24031;BME280;12240;51.142;22.486;2023-01-30T09:35:30;98284.69;;;-1.01;100.00
24031;BME280;12240;51.142;22.486;2023-01-30T09:37:59;98262.94;;;-1.01;100.00
24031;BME280;12240;51.142;22.486;2023-01-30T09:40:30;98255.03;;;-1.00;100.00
24031;BME280;12240;51.142;22.486;2023-01-30T09:54:40;98167.25;;;-1.02;100.00
24031;BME280;12240;51.142;22.486;2023-01-30T09:57:20;98209.00;;;-0.66;100.00
24031;BME280;12240;51.142;22.486;2023-01-30T10:02:38;98212.84;;;-0.59;100.00
24031;BME280;12240;51.142;22.486;2023-01-30T10:05:08;98214.31;;;-0.55;100.00
24031;BME280;12240;51.142;22.486;2023-01-30T10:08:07;98207.84;;;-0.62;100.00
24031;BME280;12240;51.142;22.486;2023-01-30T10:23:28;98159.50;;;-0.57;100.00
24031;BME280;12240;51.142;22.486;2023-01-30T10:26:17;98169.88;;;-0.55;100.00
24031;BME280;12240;51.142;22.486;2023-01-30T10:31:54;98092.47;;;-0.92;100.00
24031;BME280;12240;51.142;22.486;2023-01-30T10:34:33;98147.50;;;-0.59;100.00
24031;BME280;12240;51.142;22.486;2023-01-30T10:37:30;98141.91;;;-0.55;100.00
24031;BME280;12240;51.142;22.486;2023-01-30T10:40:40;98074.47;;;-0.84;100.00
24031;BME280;12240;51.142;22.486;2023-01-30T10:43:31;98154.88;;;-0.53;100.00
24031;BME280;12240;51.142;22.486;2023-01-30T10:46:50;98150.34;;;-0.62;100.00
24031;BME280;12240;51.142;22.486;2023-01-30T10:49:40;98139.28;;;-0.66;100.00
24031;BME280;12240;51.142;22.486;2023-01-30T10:52:34;98136.56;;;-0.64;100.00
24031;BME280;12240;51.142;22.486;2023-01-30T10:55:28;98140.69;;;-0.73;100.00
24031;BME280;12240;51.142;22.486;2023-01-30T11:04:38;98088.72;;;-1.12;100.00
24031;BME280;12240;51.142;22.486;2023-01-30T11:07:09;98137.28;;;-0.86;100.00
24031;BME280;12240;51.142;22.486;2023-01-30T11:09:44;98129.91;;;-0.92;100.00
24031;BME280;12240;51.142;22.486;2023-01-30T11:12:14;98130.16;;;-0.84;100.00
24031;BME280;12240;51.142;22.486;2023-01-30T11:15:14;98136.88;;;-0.92;100.00
24031;BME280;12240;51.142;22.486;2023-01-30T11:17:44;98074.41;;;-1.43;100.00
24031;BME280;12240;51.142;22.486;2023-01-30T11:20:23;98095.34;;;-1.19;100.00
24031;BME280;12240;51.142;22.486;2023-01-30T11:23:05;98126.34;;;-1.14;100.00
24031;BME280;12240;51.142;22.486;2023-01-30T11:25:56;98102.56;;;-1.23;100.00
24031;BME280;12240;51.142;22.486;2023-01-30T11:28:43;98122.75;;;-1.13;100.00
24031;BME280;12240;51.142;22.486;2023-01-30T11:31:24;98110.69;;;-1.27;100.00
24031;BME280;12240;51.142;22.486;2023-01-30T11:34:15;98111.13;;;-1.21;100.00
24031;BME280;12240;51.142;22.486;2023-01-30T11:36:44;98102.16;;;-1.29;100.00
24031;BME280;12240;51.142;22.486;2023-01-30T11:42:00;97991.59;;;-1.88;100.00
24031;BME280;12240;51.142;22.486;2023-01-30T11:44:36;98078.25;;;-1.36;100.00
24031;BME280;12240;51.142;22.486;2023-01-30T11:47:25;98063.81;;;-1.52;100.00
24031;BME280;12240;51.142;22.486;2023-01-30T11:49:58;98092.38;;;-1.38;100.00
24031;BME280;12240;51.142;22.486;2023-01-30T11:52:49;97939.22;;;-2.21;100.00
24031;BME280;12240;51.142;22.486;2023-01-30T11:55:19;98072.34;;;-1.38;100.00
24031;BME280;12240;51.142;22.486;2023-01-30T11:57:50;98088.50;;;-1.33;100.00
24031;BME280;12240;51.142;22.486;2023-01-30T12:00:36;98088.00;;;-1.38;100.00
24031;BME280;12240;51.142;22.486;2023-01-30T12:03:15;98081.38;;;-1.31;100.00
24031;BME280;12240;51.142;22.486;2023-01-30T12:05:46;98077.94;;;-1.31;100.00
24031;BME280;12240;51.142;22.486;2023-01-30T12:11:02;98054.56;;;-1.33;100.00
24031;BME280;12240;51.142;22.486;2023-01-30T12:13:40;98073.22;;;-1.26;100.00
24031;BME280;12240;51.142;22.486;2023-01-30T12:16:22;98066.16;;;-1.13;100.00
24031;BME280;12240;51.142;22.486;2023-01-30T12:21:54;98058.59;;;-1.05;100.00
24031;BME280;12240;51.142;22.486;2023-01-30T12:25:25;98006.53;;;-1.43;100.00
24031;BME280;12240;51.142;22.486;2023-01-30T12:31:20;98011.25;;;-1.48;100.00
24031;BME280;12240;51.142;22.486;2023-01-30T12:33:51;98074.38;;;-1.06;100.00
24031;BME280;12240;51.142;22.486;2023-01-30T12:45:37;98041.78;;;-1.13;100.00
24031;BME280;12240;51.142;22.486;2023-01-30T12:56:35;98065.66;;;-1.18;100.00
24031;BME280;12240;51.142;22.486;2023-01-30T13:05:29;98073.44;;;-1.05;100.00
24031;BME280;12240;51.142;22.486;2023-01-30T13:11:44;98072.34;;;-1.03;100.00
24031;BME280;12240;51.142;22.486;2023-01-30T13:23:05;98035.19;;;-1.06;100.00
24031;BME280;12240;51.142;22.486;2023-01-30T13:26:02;97991.16;;;-1.35;100.00
24031;BME280;12240;51.142;22.486;2023-01-30T13:28:41;98053.03;;;-1.00;100.00
24031;BME280;12240;51.142;22.486;2023-01-30T13:31:16;98042.94;;;-1.05;100.00
24031;BME280;12240;51.142;22.486;2023-01-30T13:33:49;98043.50;;;-1.01;100.00
24031;BME280;12240;51.142;22.486;2023-01-30T13:36:41;97996.28;;;-1.33;100.00
24031;BME280;12240;51.142;22.486;2023-01-30T13:44:53;97976.44;;;-1.36;100.00
24031;BME280;12240;51.142;22.486;2023-01-30T13:47:51;98034.63;;;-0.99;100.00
24031;BME280;12240;51.142;22.486;2023-01-30T13:54:07;98051.03;;;-0.97;100.00
24031;BME280;12240;51.142;22.486;2023-01-30T13:57:32;98046.63;;;-0.96;100.00
24031;BME280;12240;51.142;22.486;2023-01-30T14:00:33;98057.78;;;-0.94;100.00
24031;BME280;12240;51.142;22.486;2023-01-30T14:11:38;98041.19;;;-0.93;100.00
24031;BME280;12240;51.142;22.486;2023-01-30T14:14:34;98037.13;;;-0.97;100.00
24031;BME280;12240;51.142;22.486;2023-01-30T14:17:14;98024.78;;;-0.95;100.00
24031;BME280;12240;51.142;22.486;2023-01-30T14:38:35;97990.78;;;-1.06;100.00
24031;BME280;12240;51.142;22.486;2023-01-30T14:51:45;98051.56;;;-0.81;100.00
24031;BME280;12240;51.142;22.486;2023-01-30T14:59:48;98002.19;;;-1.07;100.00
24031;BME280;12240;51.142;22.486;2023-01-30T15:02:47;98046.09;;;-0.78;100.00
24031;BME280;12240;51.142;22.486;2023-01-30T15:05:32;98026.72;;;-0.86;100.00
24031;BME280;12240;51.142;22.486;2023-01-30T15:08:14;98056.19;;;-0.73;100.00
24031;BME280;12240;51.142;22.486;2023-01-30T15:11:07;98055.28;;;-0.72;100.00
24031;BME280;12240;51.142;22.486;2023-01-30T15:13:53;98023.63;;;-0.91;100.00
24031;BME280;12240;51.142;22.486;2023-01-30T15:31:23;97984.88;;;-0.97;100.00
24031;BME280;12240;51.142;22.486;2023-01-30T15:33:54;98007.22;;;-0.93;100.00
24031;BME280;12240;51.142;22.486;2023-01-30T15:36:34;97996.03;;;-0.95;100.00
24031;BME280;12240;51.142;22.486;2023-01-30T15:39:21;98045.50;;;-0.70;100.00
24031;BME280;12240;51.142;22.486;2023-01-30T15:42:06;98050.53;;;-0.67;100.00
24031;BME280;12240;51.142;22.486;2023-01-30T15:52:48;98027.03;;;-0.91;100.00
24031;BME280;12240;51.142;22.486;2023-01-30T15:55:28;98075.25;;;-0.60;100.00
24031;BME280;12240;51.142;22.486;2023-01-30T15:58:17;98053.16;;;-0.67;100.00
24031;BME280;12240;51.142;22.486;2023-01-30T16:00:52;98063.47;;;-0.66;100.00
24031;BME280;12240;51.142;22.486;2023-01-30T16:03:31;98085.00;;;-0.51;100.00
24031;BME280;12240;51.142;22.486;2023-01-30T16:06:03;98084.81;;;-0.48;100.00
24031;BME280;12240;51.142;22.486;2023-01-30T16:08:34;98032.06;;;-0.77;100.00
24031;BME280;12240;51.142;22.486;2023-01-30T16:11:04;98072.53;;;-0.48;100.00
24031;BME280;12240;51.142;22.486;2023-01-30T16:13:32;98071.72;;;-0.48;100.00
24031;BME280;12240;51.142;22.486;2023-01-30T16:16:13;98091.72;;;-0.36;100.00
24031;BME280;12240;51.142;22.486;2023-01-30T16:18:51;98036.38;;;-0.65;100.00
24031;BME280;12240;51.142;22.486;2023-01-30T16:21:48;98031.75;;;-0.61;100.00